sensor_id;sensor_type;location;lat;lon;timestamp;P1;durP1;ratioP1;P2;durP2;ratioP2
72920;SDS011;61064;51.654;5.476;2022-08-16T00:02:16;12.93;;;7.90;;
72920;SDS011;61064;51.654;5.476;2022-08-16T00:04:41;12.20;;;7.60;;
72920;SDS011;61064;51.654;5.476;2022-08-16T00:07:07;11.83;;;7.60;;
72920;SDS011;61064;51.654;5.476;2022-08-16T00:09:32;11.60;;;7.90;;
72920;SDS011;61064;51.654;5.476;2022-08-16T00:11:58;12.77;;;7.77;;
72920;SDS011;61064;51.654;5.476;2022-08-16T00:14:28;17.55;;;8.23;;
72920;SDS011;61064;51.654;5.476;2022-08-16T00:16:55;16.50;;;8.13;;
72920;SDS011;61064;51.654;5.476;2022-08-16T00:19:22;18.23;;;8.30;;
72920;SDS011;61064;51.654;5.476;2022-08-16T00:21:51;13.82;;;8.18;;
72920;SDS011;61064;51.654;5.476;2022-08-16T00:24:17;14.05;;;8.07;;
72920;SDS011;61064;51.654;5.476;2022-08-16T00:26:43;14.95;;;8.35;;
72920;SDS011;61064;51.654;5.476;2022-08-16T00:29:09;14.10;;;7.83;;
72920;SDS011;61064;51.654;5.476;2022-08-16T00:31:35;12.43;;;8.50;;
72920;SDS011;61064;51.654;5.476;2022-08-16T00:34:01;12.48;;;8.48;;
72920;SDS011;61064;51.654;5.476;2022-08-16T00:36:27;15.63;;;8.40;;
72920;SDS011;61064;51.654;5.476;2022-08-16T00:38:52;12.93;;;7.80;;
72920;SDS011;61064;51.654;5.476;2022-08-16T00:41:18;13.37;;;8.10;;
72920;SDS011;61064;51.654;5.476;2022-08-16T00:43:44;13.60;;;7.63;;
72920;SDS011;61064;51.654;5.476;2022-08-16T00:46:23;15.20;;;8.18;;
72920;SDS011;61064;51.654;5.476;2022-08-16T00:48:54;13.13;;;7.83;;
72920;SDS011;61064;51.654;5.476;2022-08-16T00:51:21;14.18;;;8.20;;
72920;SDS011;61064;51.654;5.476;2022-08-16T00:53:47;13.68;;;8.63;;
72920;SDS011;61064;51.654;5.476;2022-08-16T00:56:15;11.85;;;7.95;;
72920;SDS011;61064;51.654;5.476;2022-08-16T00:58:44;14.20;;;8.27;;
72920;SDS011;61064;51.654;5.476;2022-08-16T01:01:11;14.07;;;8.07;;
72920;SDS011;61064;51.654;5.476;2022-08-16T01:03:38;14.18;;;8.15;;
72920;SDS011;61064;51.654;5.476;2022-08-16T01:06:07;15.38;;;8.98;;
72920;SDS011;61064;51.654;5.476;2022-08-16T01:08:35;14.90;;;8.93;;
72920;SDS011;61064;51.654;5.476;2022-08-16T01:11:02;15.13;;;8.93;;
72920;SDS011;61064;51.654;5.476;2022-08-16T01:13:30;14.27;;;8.93;;
72920;SDS011;61064;51.654;5.476;2022-08-16T01:15:59;16.17;;;9.27;;
72920;SDS011;61064;51.654;5.476;2022-08-16T01:18:29;14.48;;;9.35;;
72920;SDS011;61064;51.654;5.476;2022-08-16T01:24:16;15.93;;;9.13;;
72920;SDS011;61064;51.654;5.476;2022-08-16T01:26:42;15.83;;;8.73;;
72920;SDS011;61064;51.654;5.476;2022-08-16T01:29:10;15.43;;;8.90;;
72920;SDS011;61064;51.654;5.476;2022-08-16T01:31:40;14.98;;;9.40;;
72920;SDS011;61064;51.654;5.476;2022-08-16T01:34:06;13.63;;;9.30;;
72920;SDS011;61064;51.654;5.476;2022-08-16T01:36:31;17.30;;;10.40;;
72920;SDS011;61064;51.654;5.476;2022-08-16T01:38:58;15.10;;;10.45;;
72920;SDS011;61064;51.654;5.476;2022-08-16T01:41:26;17.53;;;10.33;;
72920;SDS011;61064;51.654;5.476;2022-08-16T01:43:54;17.27;;;10.32;;
72920;SDS011;61064;51.654;5.476;2022-08-16T01:46:28;16.20;;;10.63;;
72920;SDS011;61064;51.654;5.476;2022-08-16T01:49:07;30.80;;;10.40;;
72920;SDS011;61064;51.654;5.476;2022-08-16T01:51:36;14.95;;;9.70;;
72920;SDS011;61064;51.654;5.476;2022-08-16T01:54:02;15.80;;;10.52;;
72920;SDS011;61064;51.654;5.476;2022-08-16T01:56:28;16.45;;;10.23;;
72920;SDS011;61064;51.654;5.476;2022-08-16T01:58:56;16.97;;;10.40;;
72920;SDS011;61064;51.654;5.476;2022-08-16T02:01:22;16.92;;;9.82;;
72920;SDS011;61064;51.654;5.476;2022-08-16T02:03:49;15.43;;;10.35;;
72920;SDS011;61064;51.654;5.476;2022-08-16T02:06:14;18.30;;;10.95;;
72920;SDS011;61064;51.654;5.476;2022-08-16T02:08:40;17.13;;;11.13;;
72920;SDS011;61064;51.654;5.476;2022-08-16T02:11:06;15.90;;;10.73;;
72920;SDS011;61064;51.654;5.476;2022-08-16T02:13:33;18.10;;;11.50;;
72920;SDS011;61064;51.654;5.476;2022-08-16T02:15:59;14.32;;;10.27;;
72920;SDS011;61064;51.654;5.476;2022-08-16T02:18:25;15.70;;;10.38;;
72920;SDS011;61064;51.654;5.476;2022-08-16T02:20:51;17.93;;;10.93;;
72920;SDS011;61064;51.654;5.476;2022-08-16T02:23:18;17.05;;;10.57;;
72920;SDS011;61064;51.654;5.476;2022-08-16T02:25:44;19.05;;;11.70;;
72920;SDS011;61064;51.654;5.476;2022-08-16T02:28:11;20.30;;;11.48;;
72920;SDS011;61064;51.654;5.476;2022-08-16T02:30:37;17.83;;;11.43;;
72920;SDS011;61064;51.654;5.476;2022-08-16T02:33:03;18.30;;;11.07;;
72920;SDS011;61064;51.654;5.476;2022-08-16T02:35:30;19.83;;;10.90;;
72920;SDS011;61064;51.654;5.476;2022-08-16T02:37:56;19.33;;;10.98;;
72920;SDS011;61064;51.654;5.476;2022-08-16T02:40:22;16.75;;;10.07;;
72920;SDS011;61064;51.654;5.476;2022-08-16T02:42:49;17.63;;;11.10;;
72920;SDS011;61064;51.654;5.476;2022-08-16T02:45:15;17.35;;;11.10;;
72920;SDS011;61064;51.654;5.476;2022-08-16T02:47:42;18.67;;;10.97;;
72920;SDS011;61064;51.654;5.476;2022-08-16T02:50:08;19.48;;;11.13;;
72920;SDS011;61064;51.654;5.476;2022-08-16T02:52:33;17.80;;;11.10;;
72920;SDS011;61064;51.654;5.476;2022-08-16T02:54:59;18.65;;;11.10;;
72920;SDS011;61064;51.654;5.476;2022-08-16T02:57:24;17.40;;;10.90;;
72920;SDS011;61064;51.654;5.476;2022-08-16T02:59:50;18.07;;;11.70;;
72920;SDS011;61064;51.654;5.476;2022-08-16T03:02:16;16.00;;;10.80;;
72920;SDS011;61064;51.654;5.476;2022-08-16T03:04:42;16.20;;;11.52;;
72920;SDS011;61064;51.654;5.476;2022-08-16T03:07:08;17.33;;;11.63;;
72920;SDS011;61064;51.654;5.476;2022-08-16T03:09:34;16.90;;;11.32;;
72920;SDS011;61064;51.654;5.476;2022-08-16T03:12:00;19.83;;;11.20;;
72920;SDS011;61064;51.654;5.476;2022-08-16T03:14:26;18.98;;;10.82;;
72920;SDS011;61064;51.654;5.476;2022-08-16T03:16:52;17.73;;;10.90;;
72920;SDS011;61064;51.654;5.476;2022-08-16T03:19:18;17.35;;;11.55;;
72920;SDS011;61064;51.654;5.476;2022-08-16T03:21:44;20.50;;;11.37;;
72920;SDS011;61064;51.654;5.476;2022-08-16T03:24:10;20.33;;;11.55;;
72920;SDS011;61064;51.654;5.476;2022-08-16T03:26:36;18.63;;;11.85;;
72920;SDS011;61064;51.654;5.476;2022-08-16T03:29:01;20.93;;;11.40;;
72920;SDS011;61064;51.654;5.476;2022-08-16T03:31:27;18.30;;;11.80;;
72920;SDS011;61064;51.654;5.476;2022-08-16T03:33:53;19.63;;;11.97;;
72920;SDS011;61064;51.654;5.476;2022-08-16T03:36:18;17.63;;;11.80;;
72920;SDS011;61064;51.654;5.476;2022-08-16T03:38:44;18.80;;;12.23;;
72920;SDS011;61064;51.654;5.476;2022-08-16T03:41:10;18.33;;;11.37;;
72920;SDS011;61064;51.654;5.476;2022-08-16T03:43:35;18.00;;;11.40;;
72920;SDS011;61064;51.654;5.476;2022-08-16T03:46:01;17.85;;;11.20;;
72920;SDS011;61064;51.654;5.476;2022-08-16T03:48:28;18.63;;;11.77;;
72920;SDS011;61064;51.654;5.476;2022-08-16T03:50:59;19.30;;;12.27;;
72920;SDS011;61064;51.654;5.476;2022-08-16T03:53:26;20.70;;;12.20;;
72920;SDS011;61064;51.654;5.476;2022-08-16T03:55:53;20.42;;;12.45;;
72920;SDS011;61064;51.654;5.476;2022-08-16T03:58:18;18.02;;;11.73;;
72920;SDS011;61064;51.654;5.476;2022-08-16T04:00:44;22.03;;;12.20;;
72920;SDS011;61064;51.654;5.476;2022-08-16T04:03:09;17.57;;;11.53;;
72920;SDS011;61064;51.654;5.476;2022-08-16T04:05:36;19.23;;;11.43;;
72920;SDS011;61064;51.654;5.476;2022-08-16T04:08:04;19.58;;;12.45;;
72920;SDS011;61064;51.654;5.476;2022-08-16T04:10:30;16.85;;;11.45;;
72920;SDS011;61064;51.654;5.476;2022-08-16T04:12:56;17.33;;;11.67;;
72920;SDS011;61064;51.654;5.476;2022-08-16T04:15:22;16.70;;;11.02;;
72920;SDS011;61064;51.654;5.476;2022-08-16T04:17:50;17.37;;;11.47;;
72920;SDS011;61064;51.654;5.476;2022-08-16T04:20:15;20.85;;;11.85;;
72920;SDS011;61064;51.654;5.476;2022-08-16T04:22:41;21.60;;;12.25;;
72920;SDS011;61064;51.654;5.476;2022-08-16T04:25:08;18.27;;;11.48;;
72920;SDS011;61064;51.654;5.476;2022-08-16T04:27:35;19.95;;;11.90;;
72920;SDS011;61064;51.654;5.476;2022-08-16T04:30:00;17.87;;;11.10;;
72920;SDS011;61064;51.654;5.476;2022-08-16T04:32:27;18.27;;;11.80;;
72920;SDS011;61064;51.654;5.476;2022-08-16T04:34:53;18.03;;;11.17;;
72920;SDS011;61064;51.654;5.476;2022-08-16T04:37:19;20.20;;;12.05;;
72920;SDS011;61064;51.654;5.476;2022-08-16T04:39:44;19.97;;;11.80;;
72920;SDS011;61064;51.654;5.476;2022-08-16T04:42:09;17.27;;;11.30;;
72920;SDS011;61064;51.654;5.476;2022-08-16T04:44:35;21.90;;;12.63;;
72920;SDS011;61064;51.654;5.476;2022-08-16T04:47:01;20.30;;;11.93;;
72920;SDS011;61064;51.654;5.476;2022-08-16T04:49:26;18.30;;;11.90;;
72920;SDS011;61064;51.654;5.476;2022-08-16T04:51:52;19.33;;;11.63;;
72920;SDS011;61064;51.654;5.476;2022-08-16T04:54:17;18.23;;;11.43;;
72920;SDS011;61064;51.654;5.476;2022-08-16T04:56:43;21.80;;;12.90;;
72920;SDS011;61064;51.654;5.476;2022-08-16T04:59:09;18.83;;;12.35;;
72920;SDS011;61064;51.654;5.476;2022-08-16T05:01:35;21.05;;;12.32;;
72920;SDS011;61064;51.654;5.476;2022-08-16T05:04:01;20.17;;;12.48;;
72920;SDS011;61064;51.654;5.476;2022-08-16T05:06:27;22.57;;;12.70;;
72920;SDS011;61064;51.654;5.476;2022-08-16T05:08:53;21.90;;;13.38;;
72920;SDS011;61064;51.654;5.476;2022-08-16T05:11:18;19.30;;;13.30;;
72920;SDS011;61064;51.654;5.476;2022-08-16T05:13:44;21.05;;;13.90;;
72920;SDS011;61064;51.654;5.476;2022-08-16T05:16:16;19.33;;;13.67;;
72920;SDS011;61064;51.654;5.476;2022-08-16T05:18:44;22.98;;;14.18;;
72920;SDS011;61064;51.654;5.476;2022-08-16T05:21:10;21.42;;;13.98;;
72920;SDS011;61064;51.654;5.476;2022-08-16T05:23:35;22.03;;;14.20;;
72920;SDS011;61064;51.654;5.476;2022-08-16T05:26:00;19.83;;;14.23;;
72920;SDS011;61064;51.654;5.476;2022-08-16T05:28:26;21.30;;;14.45;;
72920;SDS011;61064;51.654;5.476;2022-08-16T05:30:52;22.30;;;14.07;;
72920;SDS011;61064;51.654;5.476;2022-08-16T05:33:17;23.30;;;14.85;;
72920;SDS011;61064;51.654;5.476;2022-08-16T05:35:45;22.27;;;14.97;;
72920;SDS011;61064;51.654;5.476;2022-08-16T05:38:11;22.02;;;14.70;;
72920;SDS011;61064;51.654;5.476;2022-08-16T05:40:36;22.23;;;14.80;;
72920;SDS011;61064;51.654;5.476;2022-08-16T05:43:02;22.23;;;15.10;;
72920;SDS011;61064;51.654;5.476;2022-08-16T05:45:27;22.30;;;14.93;;
72920;SDS011;61064;51.654;5.476;2022-08-16T05:47:52;23.83;;;14.83;;
72920;SDS011;61064;51.654;5.476;2022-08-16T05:50:18;22.13;;;15.23;;
72920;SDS011;61064;51.654;5.476;2022-08-16T05:52:43;23.93;;;14.87;;
72920;SDS011;61064;51.654;5.476;2022-08-16T05:55:08;25.63;;;16.50;;
72920;SDS011;61064;51.654;5.476;2022-08-16T05:57:34;23.07;;;15.33;;
72920;SDS011;61064;51.654;5.476;2022-08-16T05:59:59;22.80;;;15.80;;
72920;SDS011;61064;51.654;5.476;2022-08-16T06:02:25;23.77;;;15.47;;
72920;SDS011;61064;51.654;5.476;2022-08-16T06:04:53;22.05;;;14.98;;
72920;SDS011;61064;51.654;5.476;2022-08-16T06:07:19;25.00;;;15.87;;
72920;SDS011;61064;51.654;5.476;2022-08-16T06:09:45;23.88;;;15.57;;
72920;SDS011;61064;51.654;5.476;2022-08-16T06:12:11;25.27;;;14.73;;
72920;SDS011;61064;51.654;5.476;2022-08-16T06:14:37;23.27;;;14.93;;
72920;SDS011;61064;51.654;5.476;2022-08-16T06:17:02;20.27;;;14.27;;
72920;SDS011;61064;51.654;5.476;2022-08-16T06:19:28;20.55;;;14.18;;
72920;SDS011;61064;51.654;5.476;2022-08-16T06:21:53;19.93;;;13.70;;
72920;SDS011;61064;51.654;5.476;2022-08-16T06:24:19;19.23;;;13.77;;
72920;SDS011;61064;51.654;5.476;2022-08-16T06:26:44;23.03;;;14.43;;
72920;SDS011;61064;51.654;5.476;2022-08-16T06:29:09;24.07;;;14.53;;
72920;SDS011;61064;51.654;5.476;2022-08-16T06:31:35;21.67;;;14.17;;
72920;SDS011;61064;51.654;5.476;2022-08-16T06:34:00;19.75;;;13.45;;
72920;SDS011;61064;51.654;5.476;2022-08-16T06:36:26;21.13;;;14.13;;
72920;SDS011;61064;51.654;5.476;2022-08-16T06:38:53;23.25;;;14.32;;
72920;SDS011;61064;51.654;5.476;2022-08-16T06:41:18;20.53;;;13.90;;
72920;SDS011;61064;51.654;5.476;2022-08-16T06:43:44;20.73;;;13.97;;
72920;SDS011;61064;51.654;5.476;2022-08-16T06:46:20;22.42;;;13.57;;
72920;SDS011;61064;51.654;5.476;2022-08-16T06:49:00;20.83;;;14.13;;
72920;SDS011;61064;51.654;5.476;2022-08-16T06:51:26;18.33;;;13.13;;
72920;SDS011;61064;51.654;5.476;2022-08-16T06:53:51;20.87;;;14.20;;
72920;SDS011;61064;51.654;5.476;2022-08-16T06:56:17;20.03;;;13.53;;
72920;SDS011;61064;51.654;5.476;2022-08-16T06:58:42;21.30;;;14.88;;
72920;SDS011;61064;51.654;5.476;2022-08-16T07:01:07;20.30;;;13.73;;
72920;SDS011;61064;51.654;5.476;2022-08-16T07:03:33;22.50;;;15.10;;
72920;SDS011;61064;51.654;5.476;2022-08-16T07:05:59;27.37;;;14.93;;
72920;SDS011;61064;51.654;5.476;2022-08-16T07:08:25;22.93;;;15.07;;
72920;SDS011;61064;51.654;5.476;2022-08-16T07:10:51;23.88;;;14.20;;
72920;SDS011;61064;51.654;5.476;2022-08-16T07:13:17;21.70;;;15.15;;
72920;SDS011;61064;51.654;5.476;2022-08-16T07:15:43;23.73;;;15.20;;
72920;SDS011;61064;51.654;5.476;2022-08-16T07:18:08;21.40;;;14.77;;
72920;SDS011;61064;51.654;5.476;2022-08-16T07:20:35;22.60;;;15.32;;
72920;SDS011;61064;51.654;5.476;2022-08-16T07:23:02;25.65;;;16.35;;
72920;SDS011;61064;51.654;5.476;2022-08-16T07:25:31;22.45;;;15.80;;
72920;SDS011;61064;51.654;5.476;2022-08-16T07:27:57;23.42;;;16.33;;
72920;SDS011;61064;51.654;5.476;2022-08-16T07:30:22;24.77;;;15.80;;
72920;SDS011;61064;51.654;5.476;2022-08-16T07:32:48;23.30;;;15.50;;
72920;SDS011;61064;51.654;5.476;2022-08-16T07:35:14;24.33;;;16.65;;
72920;SDS011;61064;51.654;5.476;2022-08-16T07:37:40;23.38;;;15.85;;
72920;SDS011;61064;51.654;5.476;2022-08-16T07:40:06;20.70;;;14.93;;
72920;SDS011;61064;51.654;5.476;2022-08-16T07:42:32;22.13;;;15.35;;
72920;SDS011;61064;51.654;5.476;2022-08-16T07:44:57;23.27;;;15.60;;
72920;SDS011;61064;51.654;5.476;2022-08-16T07:47:23;22.77;;;15.43;;
72920;SDS011;61064;51.654;5.476;2022-08-16T07:49:48;20.95;;;14.85;;
72920;SDS011;61064;51.654;5.476;2022-08-16T07:52:14;26.07;;;14.53;;
72920;SDS011;61064;51.654;5.476;2022-08-16T07:54:39;20.30;;;14.00;;
72920;SDS011;61064;51.654;5.476;2022-08-16T07:57:04;20.03;;;13.17;;
72920;SDS011;61064;51.654;5.476;2022-08-16T07:59:30;20.87;;;13.43;;
72920;SDS011;61064;51.654;5.476;2022-08-16T08:01:55;20.40;;;13.17;;
72920;SDS011;61064;51.654;5.476;2022-08-16T08:04:21;19.90;;;12.23;;
72920;SDS011;61064;51.654;5.476;2022-08-16T08:06:46;18.07;;;13.27;;
72920;SDS011;61064;51.654;5.476;2022-08-16T08:09:11;18.43;;;12.57;;
72920;SDS011;61064;51.654;5.476;2022-08-16T08:11:37;19.13;;;12.70;;
72920;SDS011;61064;51.654;5.476;2022-08-16T08:14:03;16.15;;;11.93;;
72920;SDS011;61064;51.654;5.476;2022-08-16T08:16:29;16.38;;;12.25;;
72920;SDS011;61064;51.654;5.476;2022-08-16T08:18:57;18.48;;;11.65;;
72920;SDS011;61064;51.654;5.476;2022-08-16T08:21:24;20.00;;;11.57;;
72920;SDS011;61064;51.654;5.476;2022-08-16T08:23:50;19.92;;;11.98;;
72920;SDS011;61064;51.654;5.476;2022-08-16T08:26:16;18.55;;;10.60;;
72920;SDS011;61064;51.654;5.476;2022-08-16T08:28:43;17.00;;;11.13;;
72920;SDS011;61064;51.654;5.476;2022-08-16T08:31:09;16.88;;;11.43;;
72920;SDS011;61064;51.654;5.476;2022-08-16T08:33:34;18.37;;;10.60;;
72920;SDS011;61064;51.654;5.476;2022-08-16T08:36:02;16.83;;;10.38;;
72920;SDS011;61064;51.654;5.476;2022-08-16T08:38:31;17.40;;;10.63;;
72920;SDS011;61064;51.654;5.476;2022-08-16T08:40:59;15.63;;;10.43;;
72920;SDS011;61064;51.654;5.476;2022-08-16T08:43:24;17.10;;;10.40;;
72920;SDS011;61064;51.654;5.476;2022-08-16T08:45:50;15.33;;;9.90;;
72920;SDS011;61064;51.654;5.476;2022-08-16T08:48:18;12.80;;;9.35;;
72920;SDS011;61064;51.654;5.476;2022-08-16T08:50:44;15.60;;;9.70;;
72920;SDS011;61064;51.654;5.476;2022-08-16T08:53:09;13.77;;;8.73;;
72920;SDS011;61064;51.654;5.476;2022-08-16T08:55:36;17.58;;;9.68;;
72920;SDS011;61064;51.654;5.476;2022-08-16T08:58:01;15.53;;;9.97;;
72920;SDS011;61064;51.654;5.476;2022-08-16T09:00:26;14.77;;;9.10;;
72920;SDS011;61064;51.654;5.476;2022-08-16T09:02:53;13.55;;;8.55;;
72920;SDS011;61064;51.654;5.476;2022-08-16T09:05:20;15.40;;;8.70;;
72920;SDS011;61064;51.654;5.476;2022-08-16T09:07:47;15.20;;;9.50;;
72920;SDS011;61064;51.654;5.476;2022-08-16T09:10:12;11.33;;;8.17;;
72920;SDS011;61064;51.654;5.476;2022-08-16T09:12:38;14.57;;;8.03;;
72920;SDS011;61064;51.654;5.476;2022-08-16T09:15:06;11.18;;;7.57;;
72920;SDS011;61064;51.654;5.476;2022-08-16T09:17:32;14.82;;;8.35;;
72920;SDS011;61064;51.654;5.476;2022-08-16T09:19:57;11.93;;;7.60;;
72920;SDS011;61064;51.654;5.476;2022-08-16T09:22:23;13.13;;;7.57;;
72920;SDS011;61064;51.654;5.476;2022-08-16T09:24:50;14.67;;;7.67;;
72920;SDS011;61064;51.654;5.476;2022-08-16T09:27:16;17.48;;;7.70;;
72920;SDS011;61064;51.654;5.476;2022-08-16T09:29:42;11.68;;;7.28;;
72920;SDS011;61064;51.654;5.476;2022-08-16T09:32:08;12.02;;;7.50;;
72920;SDS011;61064;51.654;5.476;2022-08-16T09:34:34;12.20;;;6.73;;
72920;SDS011;61064;51.654;5.476;2022-08-16T09:36:59;11.20;;;6.43;;
72920;SDS011;61064;51.654;5.476;2022-08-16T09:39:25;9.57;;;5.73;;
72920;SDS011;61064;51.654;5.476;2022-08-16T09:41:51;13.63;;;6.93;;
72920;SDS011;61064;51.654;5.476;2022-08-16T09:44:21;10.95;;;6.57;;
72920;SDS011;61064;51.654;5.476;2022-08-16T09:46:48;13.73;;;6.87;;
72920;SDS011;61064;51.654;5.476;2022-08-16T09:49:15;9.52;;;6.68;;
72920;SDS011;61064;51.654;5.476;2022-08-16T09:51:41;12.02;;;6.45;;
72920;SDS011;61064;51.654;5.476;2022-08-16T09:54:06;12.20;;;6.30;;
72920;SDS011;61064;51.654;5.476;2022-08-16T09:56:35;10.85;;;6.57;;
72920;SDS011;61064;51.654;5.476;2022-08-16T09:59:03;12.70;;;6.15;;
72920;SDS011;61064;51.654;5.476;2022-08-16T10:01:30;11.63;;;6.70;;
72920;SDS011;61064;51.654;5.476;2022-08-16T10:03:56;12.37;;;6.43;;
72920;SDS011;61064;51.654;5.476;2022-08-16T10:06:22;11.13;;;6.25;;
72920;SDS011;61064;51.654;5.476;2022-08-16T10:08:49;11.13;;;6.03;;
72920;SDS011;61064;51.654;5.476;2022-08-16T10:11:15;9.77;;;5.70;;
72920;SDS011;61064;51.654;5.476;2022-08-16T10:13:59;10.43;;;5.63;;
72920;SDS011;61064;51.654;5.476;2022-08-16T10:16:24;11.15;;;5.53;;
72920;SDS011;61064;51.654;5.476;2022-08-16T10:18:50;10.38;;;5.40;;
72920;SDS011;61064;51.654;5.476;2022-08-16T10:21:16;11.80;;;5.40;;
72920;SDS011;61064;51.654;5.476;2022-08-16T10:23:42;9.77;;;5.30;;
72920;SDS011;61064;51.654;5.476;2022-08-16T10:26:08;10.68;;;5.22;;
72920;SDS011;61064;51.654;5.476;2022-08-16T10:28:34;11.07;;;4.97;;
72920;SDS011;61064;51.654;5.476;2022-08-16T10:31:00;8.93;;;5.00;;
72920;SDS011;61064;51.654;5.476;2022-08-16T10:33:27;10.25;;;5.30;;
72920;SDS011;61064;51.654;5.476;2022-08-16T10:35:53;11.15;;;4.93;;
72920;SDS011;61064;51.654;5.476;2022-08-16T10:38:19;10.10;;;4.78;;
72920;SDS011;61064;51.654;5.476;2022-08-16T10:40:45;11.77;;;5.23;;
72920;SDS011;61064;51.654;5.476;2022-08-16T10:43:10;8.98;;;4.85;;
72920;SDS011;61064;51.654;5.476;2022-08-16T10:45:36;11.57;;;5.03;;
72920;SDS011;61064;51.654;5.476;2022-08-16T10:48:03;9.70;;;5.40;;
72920;SDS011;61064;51.654;5.476;2022-08-16T10:50:31;9.88;;;5.30;;
72920;SDS011;61064;51.654;5.476;2022-08-16T10:52:57;12.43;;;5.18;;
72920;SDS011;61064;51.654;5.476;2022-08-16T10:55:23;9.03;;;5.17;;
72920;SDS011;61064;51.654;5.476;2022-08-16T10:57:49;12.93;;;5.13;;
72920;SDS011;61064;51.654;5.476;2022-08-16T11:00:15;9.67;;;4.90;;
72920;SDS011;61064;51.654;5.476;2022-08-16T11:02:42;11.30;;;4.65;;
72920;SDS011;61064;51.654;5.476;2022-08-16T11:05:09;12.13;;;5.60;;
72920;SDS011;61064;51.654;5.476;2022-08-16T11:07:38;9.32;;;5.15;;
72920;SDS011;61064;51.654;5.476;2022-08-16T11:10:05;9.30;;;5.43;;
72920;SDS011;61064;51.654;5.476;2022-08-16T11:12:31;9.93;;;5.25;;
72920;SDS011;61064;51.654;5.476;2022-08-16T11:14:57;10.27;;;5.00;;
72920;SDS011;61064;51.654;5.476;2022-08-16T11:17:22;10.53;;;5.00;;
72920;SDS011;61064;51.654;5.476;2022-08-16T11:19:48;10.27;;;5.13;;
72920;SDS011;61064;51.654;5.476;2022-08-16T11:22:13;11.30;;;5.03;;
72920;SDS011;61064;51.654;5.476;2022-08-16T11:24:39;12.20;;;4.75;;
72920;SDS011;61064;51.654;5.476;2022-08-16T11:27:06;11.63;;;4.80;;
72920;SDS011;61064;51.654;5.476;2022-08-16T11:29:33;8.70;;;5.00;;
72920;SDS011;61064;51.654;5.476;2022-08-16T11:32:00;9.82;;;5.10;;
72920;SDS011;61064;51.654;5.476;2022-08-16T11:34:29;11.00;;;5.03;;
72920;SDS011;61064;51.654;5.476;2022-08-16T11:36:55;9.53;;;4.90;;
72920;SDS011;61064;51.654;5.476;2022-08-16T11:39:20;10.82;;;5.30;;
72920;SDS011;61064;51.654;5.476;2022-08-16T11:41:46;11.13;;;5.10;;
72920;SDS011;61064;51.654;5.476;2022-08-16T11:44:11;9.87;;;5.00;;
72920;SDS011;61064;51.654;5.476;2022-08-16T11:46:36;10.80;;;5.33;;
72920;SDS011;61064;51.654;5.476;2022-08-16T11:49:03;9.33;;;5.30;;
72920;SDS011;61064;51.654;5.476;2022-08-16T11:51:30;9.38;;;5.10;;
72920;SDS011;61064;51.654;5.476;2022-08-16T11:53:56;10.82;;;5.00;;
72920;SDS011;61064;51.654;5.476;2022-08-16T11:56:22;10.43;;;5.00;;
72920;SDS011;61064;51.654;5.476;2022-08-16T11:58:48;10.70;;;5.30;;
72920;SDS011;61064;51.654;5.476;2022-08-16T12:01:13;8.98;;;5.35;;
72920;SDS011;61064;51.654;5.476;2022-08-16T12:03:39;10.07;;;5.57;;
72920;SDS011;61064;51.654;5.476;2022-08-16T12:06:13;9.13;;;5.07;;
72920;SDS011;61064;51.654;5.476;2022-08-16T12:08:41;9.15;;;5.50;;
72920;SDS011;61064;51.654;5.476;2022-08-16T12:11:09;8.95;;;4.82;;
72920;SDS011;61064;51.654;5.476;2022-08-16T12:13:36;10.55;;;4.78;;
72920;SDS011;61064;51.654;5.476;2022-08-16T12:16:02;11.30;;;4.70;;
72920;SDS011;61064;51.654;5.476;2022-08-16T12:18:28;8.40;;;4.63;;
72920;SDS011;61064;51.654;5.476;2022-08-16T12:20:54;12.30;;;4.72;;
72920;SDS011;61064;51.654;5.476;2022-08-16T12:23:19;7.80;;;4.00;;
72920;SDS011;61064;51.654;5.476;2022-08-16T12:25:45;9.17;;;4.17;;
72920;SDS011;61064;51.654;5.476;2022-08-16T12:28:11;8.07;;;4.05;;
72920;SDS011;61064;51.654;5.476;2022-08-16T12:30:38;8.03;;;4.30;;
72920;SDS011;61064;51.654;5.476;2022-08-16T12:33:08;7.53;;;4.15;;
72920;SDS011;61064;51.654;5.476;2022-08-16T12:35:35;9.50;;;4.53;;
72920;SDS011;61064;51.654;5.476;2022-08-16T12:38:02;11.60;;;4.40;;
72920;SDS011;61064;51.654;5.476;2022-08-16T12:40:30;9.07;;;4.75;;
72920;SDS011;61064;51.654;5.476;2022-08-16T12:42:59;10.27;;;4.93;;
72920;SDS011;61064;51.654;5.476;2022-08-16T12:45:27;7.88;;;4.18;;
72920;SDS011;61064;51.654;5.476;2022-08-16T12:47:54;11.32;;;5.63;;
72920;SDS011;61064;51.654;5.476;2022-08-16T12:50:38;10.38;;;5.85;;
72920;SDS011;61064;51.654;5.476;2022-08-16T12:53:04;12.05;;;6.00;;
72920;SDS011;61064;51.654;5.476;2022-08-16T12:55:30;10.30;;;5.23;;
72920;SDS011;61064;51.654;5.476;2022-08-16T12:57:56;9.10;;;4.78;;
72920;SDS011;61064;51.654;5.476;2022-08-16T13:00:22;8.87;;;4.53;;
72920;SDS011;61064;51.654;5.476;2022-08-16T13:02:51;9.75;;;5.10;;
72920;SDS011;61064;51.654;5.476;2022-08-16T13:05:24;8.27;;;4.72;;
72920;SDS011;61064;51.654;5.476;2022-08-16T13:07:50;8.60;;;4.72;;
72920;SDS011;61064;51.654;5.476;2022-08-16T13:10:16;8.93;;;4.80;;
72920;SDS011;61064;51.654;5.476;2022-08-16T13:12:45;8.20;;;4.68;;
72920;SDS011;61064;51.654;5.476;2022-08-16T13:15:27;8.65;;;4.60;;
72920;SDS011;61064;51.654;5.476;2022-08-16T13:17:53;11.98;;;4.65;;
72920;SDS011;61064;51.654;5.476;2022-08-16T13:20:21;10.80;;;4.22;;
72920;SDS011;61064;51.654;5.476;2022-08-16T13:22:53;6.67;;;3.87;;
72920;SDS011;61064;51.654;5.476;2022-08-16T13:25:32;7.40;;;4.15;;
72920;SDS011;61064;51.654;5.476;2022-08-16T13:27:59;8.05;;;4.50;;
72920;SDS011;61064;51.654;5.476;2022-08-16T13:30:29;8.38;;;4.43;;
72920;SDS011;61064;51.654;5.476;2022-08-16T13:32:56;10.00;;;4.60;;
72920;SDS011;61064;51.654;5.476;2022-08-16T13:35:22;9.02;;;4.65;;
72920;SDS011;61064;51.654;5.476;2022-08-16T13:37:48;7.93;;;4.30;;
72920;SDS011;61064;51.654;5.476;2022-08-16T13:40:14;9.30;;;4.50;;
72920;SDS011;61064;51.654;5.476;2022-08-16T13:42:39;10.35;;;4.78;;
72920;SDS011;61064;51.654;5.476;2022-08-16T13:45:06;8.65;;;4.53;;
72920;SDS011;61064;51.654;5.476;2022-08-16T13:47:32;9.60;;;4.83;;
72920;SDS011;61064;51.654;5.476;2022-08-16T13:49:58;8.00;;;4.38;;
72920;SDS011;61064;51.654;5.476;2022-08-16T13:52:23;8.87;;;4.83;;
72920;SDS011;61064;51.654;5.476;2022-08-16T13:54:49;9.38;;;4.80;;
72920;SDS011;61064;51.654;5.476;2022-08-16T13:57:15;10.50;;;4.53;;
72920;SDS011;61064;51.654;5.476;2022-08-16T13:59:40;7.17;;;4.20;;
72920;SDS011;61064;51.654;5.476;2022-08-16T14:02:07;8.23;;;4.30;;
72920;SDS011;61064;51.654;5.476;2022-08-16T14:04:34;8.18;;;4.60;;
72920;SDS011;61064;51.654;5.476;2022-08-16T14:07:02;9.80;;;5.10;;
72920;SDS011;61064;51.654;5.476;2022-08-16T14:09:30;11.40;;;5.03;;
72920;SDS011;61064;51.654;5.476;2022-08-16T14:11:56;7.60;;;4.90;;
72920;SDS011;61064;51.654;5.476;2022-08-16T14:14:24;7.90;;;4.93;;
72920;SDS011;61064;51.654;5.476;2022-08-16T14:16:50;10.70;;;5.13;;
72920;SDS011;61064;51.654;5.476;2022-08-16T14:19:15;10.60;;;5.57;;
72920;SDS011;61064;51.654;5.476;2022-08-16T14:21:45;9.80;;;5.20;;
72920;SDS011;61064;51.654;5.476;2022-08-16T14:24:11;9.13;;;4.75;;
72920;SDS011;61064;51.654;5.476;2022-08-16T14:26:39;9.98;;;4.78;;
72920;SDS011;61064;51.654;5.476;2022-08-16T14:29:05;8.37;;;4.60;;
72920;SDS011;61064;51.654;5.476;2022-08-16T14:31:30;8.43;;;4.68;;